Time;durP1;ratioP1;P1;durP2;ratioP2;P2;SDS_P1;SDS_P2;PMS_P1;PMS_P2;Temp;Humidity;BMP_temperature;BMP_pressure;BME280_temperature;BME280_humidity;BME280_pressure;Samples;Min_cycle;Max_cycle;Signal;HPM_P1;HPM_P2
2022/04/11 00:02:00;;;;;;;14.02;7.13;;;;;;;;;;5011180;28;20657;-84
2022/04/11 00:04:27;;;;;;;14.13;7.28;;;;;;;;;;5028891;28;20029;-84
2022/04/11 00:06:53;;;;;;;10.45;6.10;;;;;;;;;;5028814;28;20074;-83
2022/04/11 00:09:19;;;;;;;12.05;6.78;;;;;;;;;;5032673;28;20490;-85
2022/04/11 00:11:46;;;;;;;12.13;6.88;;;;;;;;;;5032749;28;20056;-84
2022/04/11 00:14:13;;;;;;;10.38;6.50;;;;;;;;;;5016423;28;20042;-84
2022/04/11 00:16:39;;;;;;;11.80;7.05;;;;;;;;;;5016711;28;20030;-85
2022/04/11 00:19:05;;;;;;;13.45;6.72;;;;;;;;;;5015792;28;20044;-85
2022/04/11 00:21:32;;;;;;;11.32;6.20;;;;;;;;;;5016823;28;20509;-85
2022/04/11 00:23:58;;;;;;;11.15;6.75;;;;;;;;;;5034261;28;20040;-84
2022/04/11 00:26:24;;;;;;;10.15;6.20;;;;;;;;;;5032886;28;20022;-84
2022/04/11 00:28:50;;;;;;;12.35;6.30;;;;;;;;;;5034985;28;20080;-84
2022/04/11 00:31:16;;;;;;;13.30;6.32;;;;;;;;;;5017869;28;20087;-84
2022/04/11 00:33:50;;;;;;;12.05;6.70;;;;;;;;;;5033105;28;20061;-85
2022/04/11 00:36:16;;;;;;;13.13;6.90;;;;;;;;;;5032609;28;20025;-84
2022/04/11 00:38:42;;;;;;;11.32;6.60;;;;;;;;;;5032954;28;20080;-84
2022/04/11 00:41:08;;;;;;;10.93;6.82;;;;;;;;;;5015847;28;20136;-84
2022/04/11 00:43:39;;;;;;;12.93;7.15;;;;;;;;;;5015267;28;20124;-84
2022/04/11 00:46:06;;;;;;;11.20;6.72;;;;;;;;;;5014914;28;20376;-84
2022/04/11 00:48:33;;;;;;;11.23;7.03;;;;;;;;;;5014770;28;20033;-84
2022/04/11 00:51:17;;;;;;;12.70;6.93;;;;;;;;;;5025010;28;20507;-84
2022/04/11 00:53:46;;;;;;;10.73;6.93;;;;;;;;;;5034856;28;20033;-85
2022/04/11 00:56:15;;;;;;;13.65;7.05;;;;;;;;;;5051774;28;20032;-85
2022/04/11 00:58:41;;;;;;;11.82;6.63;;;;;;;;;;5051732;28;20029;-84
2022/04/11 01:01:08;;;;;;;10.98;7.47;;;;;;;;;;5052233;28;20028;-85
2022/04/11 01:03:34;;;;;;;16.05;7.35;;;;;;;;;;5052951;28;20036;-85
2022/04/11 01:06:01;;;;;;;13.98;7.10;;;;;;;;;;5053112;28;20060;-84
2022/04/11 01:08:27;;;;;;;16.42;6.93;;;;;;;;;;5053921;28;20032;-84
2022/04/11 01:10:54;;;;;;;14.15;7.13;;;;;;;;;;5054352;28;20044;-84
2022/04/11 01:13:20;;;;;;;14.32;7.55;;;;;;;;;;5056092;28;20033;-84
2022/04/11 01:16:12;;;;;;;11.38;7.20;;;;;;;;;;5054732;28;20029;-84
2022/04/11 01:18:39;;;;;;;13.38;7.63;;;;;;;;;;5047499;28;20037;-85
2022/04/11 01:21:08;;;;;;;16.08;7.45;;;;;;;;;;5033952;28;20041;-85
2022/04/11 01:23:34;;;;;;;12.25;7.68;;;;;;;;;;5035641;28;20490;-84
2022/04/11 01:26:01;;;;;;;12.48;7.55;;;;;;;;;;5052032;28;20056;-84
2022/04/11 01:28:27;;;;;;;15.82;7.43;;;;;;;;;;5050166;28;20021;-85
2022/04/11 01:30:55;;;;;;;11.93;7.10;;;;;;;;;;5019544;28;20073;-84
2022/04/11 01:33:23;;;;;;;13.02;7.82;;;;;;;;;;5010073;28;20041;-84
2022/04/11 01:35:49;;;;;;;10.50;6.68;;;;;;;;;;5010223;28;20586;-84
2022/04/11 01:38:17;;;;;;;13.43;7.55;;;;;;;;;;5010248;28;20030;-84
2022/04/11 01:40:56;;;;;;;12.63;7.35;;;;;;;;;;5010431;28;20056;-85
2022/04/11 01:43:24;;;;;;;14.48;7.68;;;;;;;;;;5010624;28;20646;-86
2022/04/11 01:45:50;;;;;;;10.77;6.97;;;;;;;;;;5011175;28;20038;-83
2022/04/11 01:48:16;;;;;;;12.95;7.47;;;;;;;;;;5024559;28;20024;-86
2022/04/11 01:50:42;;;;;;;11.20;6.85;;;;;;;;;;5030347;28;20064;-85
2022/04/11 01:53:14;;;;;;;11.70;6.85;;;;;;;;;;5031009;28;20029;-85
2022/04/11 01:55:40;;;;;;;;;;;;;;;;;;5012974;28;20440;-86
2022/04/11 01:58:06;;;;;;;10.15;6.45;;;;;;;;;;5030533;28;19913;-86
2022/04/11 02:00:34;;;;;;;9.38;6.18;;;;;;;;;;5030112;28;20025;-85
2022/04/11 02:03:01;;;;;;;9.48;6.32;;;;;;;;;;5030759;28;20135;-85
2022/04/11 02:05:27;;;;;;;10.52;5.97;;;;;;;;;;5030106;28;20033;-86
2022/04/11 02:07:54;;;;;;;13.02;6.55;;;;;;;;;;5030409;28;20061;-85
2022/04/11 02:10:20;;;;;;;12.70;6.30;;;;;;;;;;5031121;28;20037;-86
2022/04/11 02:12:49;;;;;;;13.15;6.72;;;;;;;;;;5013631;28;20048;-85
2022/04/11 02:15:16;;;;;;;12.85;5.97;;;;;;;;;;5013299;28;20033;-85
2022/04/11 02:17:42;;;;;;;12.55;6.05;;;;;;;;;;5030947;28;20034;-85
2022/04/11 02:20:11;;;;;;;10.38;6.10;;;;;;;;;;5030412;28;20406;-84
2022/04/11 02:22:50;;;;;;;12.18;6.57;;;;;;;;;;5031292;28;20033;-85
2022/04/11 02:25:17;;;;;;;12.18;5.90;;;;;;;;;;5031284;28;20036;-85
2022/04/11 02:27:48;;;;;;;11.50;5.93;;;;;;;;;;5030829;28;20025;-85
2022/04/11 02:30:16;;;;;;;9.63;6.35;;;;;;;;;;5031804;28;20442;-84
2022/04/11 02:32:42;;;;;;;11.00;6.07;;;;;;;;;;5012706;28;20040;-84
2022/04/11 02:35:09;;;;;;;11.15;5.97;;;;;;;;;;5029992;28;20037;-84
2022/04/11 02:37:35;;;;;;;11.80;6.18;;;;;;;;;;5012940;28;20128;-85
2022/04/11 02:40:02;;;;;;;12.95;6.43;;;;;;;;;;5019643;28;20041;-85
2022/04/11 02:42:29;;;;;;;11.57;5.38;;;;;;;;;;5012887;28;20041;-85
2022/04/11 02:44:55;;;;;;;8.98;5.80;;;;;;;;;;5029572;28;20029;-85
2022/04/11 02:47:21;;;;;;;12.05;6.05;;;;;;;;;;5029573;28;20029;-85
2022/04/11 02:49:47;;;;;;;11.10;5.22;;;;;;;;;;5029745;28;20025;-85
2022/04/11 02:52:14;;;;;;;9.05;5.93;;;;;;;;;;5029324;28;20068;-84
2022/04/11 02:54:40;;;;;;;9.75;6.10;;;;;;;;;;5029451;28;20029;-86
2022/04/11 02:57:07;;;;;;;11.82;5.28;;;;;;;;;;5029227;28;20047;-86
2022/04/11 02:59:33;;;;;;;10.10;5.68;;;;;;;;;;5029552;28;20037;-85
2022/04/11 03:02:01;;;;;;;12.68;5.72;;;;;;;;;;5029581;28;20048;-85
2022/04/11 03:04:27;;;;;;;11.13;5.43;;;;;;;;;;5030263;28;20029;-86
2022/04/11 03:06:54;;;;;;;9.88;5.05;;;;;;;;;;5011853;28;20049;-86
2022/04/11 03:09:20;;;;;;;11.27;5.43;;;;;;;;;;5012010;28;20045;-86
2022/04/11 03:11:46;;;;;;;10.38;5.65;;;;;;;;;;5031350;28;20033;-85
2022/04/11 03:14:12;;;;;;;12.50;6.28;;;;;;;;;;5032388;28;20104;-85
2022/04/11 03:16:38;;;;;;;10.45;5.75;;;;;;;;;;5012849;28;20049;-86
2022/04/11 03:19:04;;;;;;;9.57;5.68;;;;;;;;;;5012517;28;20065;-85
2022/04/11 03:21:30;;;;;;;7.45;5.13;;;;;;;;;;5030642;28;20044;-86
2022/04/11 03:23:56;;;;;;;10.80;5.85;;;;;;;;;;5033337;28;20033;-86
2022/04/11 03:26:22;;;;;;;12.73;5.57;;;;;;;;;;5012513;28;20037;-86
2022/04/11 03:28:47;;;;;;;12.30;5.88;;;;;;;;;;5046511;28;20025;-84
2022/04/11 03:31:13;;;;;;;8.70;5.32;;;;;;;;;;5040089;28;20033;-85
2022/04/11 03:33:39;;;;;;;11.20;6.22;;;;;;;;;;5029377;28;20041;-85
2022/04/11 03:36:05;;;;;;;13.02;5.70;;;;;;;;;;5011645;28;20065;-86
2022/04/11 03:38:31;;;;;;;10.07;5.65;;;;;;;;;;5011619;28;20104;-85
2022/04/11 03:40:57;;;;;;;12.10;6.32;;;;;;;;;;5011948;28;20048;-85
2022/04/11 03:43:23;;;;;;;14.75;6.00;;;;;;;;;;5032542;28;20108;-84
2022/04/11 03:45:49;;;;;;;13.35;6.00;;;;;;;;;;5015632;28;20080;-85
2022/04/11 03:48:15;;;;;;;10.07;5.32;;;;;;;;;;5033083;28;20494;-83
2022/04/11 03:50:41;;;;;;;10.35;5.75;;;;;;;;;;5032236;28;20064;-84
2022/04/11 03:53:06;;;;;;;16.70;6.68;;;;;;;;;;5031233;28;20113;-84
2022/04/11 03:55:32;;;;;;;15.23;6.38;;;;;;;;;;5040331;28;20482;-84
2022/04/11 03:57:58;;;;;;;11.80;6.18;;;;;;;;;;5033382;28;20041;-84
2022/04/11 04:00:24;;;;;;;10.48;6.50;;;;;;;;;;5032853;28;20059;-83
2022/04/11 04:02:50;;;;;;;14.05;6.93;;;;;;;;;;5042394;28;20040;-83
2022/04/11 04:05:16;;;;;;;14.23;6.60;;;;;;;;;;5052733;28;20063;-84
2022/04/11 04:07:42;;;;;;;9.90;6.63;;;;;;;;;;5052677;28;20036;-83
2022/04/11 04:10:08;;;;;;;13.70;6.93;;;;;;;;;;5053073;28;20490;-81
2022/04/11 04:12:34;;;;;;;10.98;7.07;;;;;;;;;;5038376;28;20037;-81
2022/04/11 04:15:01;;;;;;;12.02;6.63;;;;;;;;;;5032307;28;20108;-81
2022/04/11 04:17:27;;;;;;;10.48;7.22;;;;;;;;;;5035437;28;20025;-82
2022/04/11 04:19:53;;;;;;;12.07;7.00;;;;;;;;;;5014475;28;20120;-81
2022/04/11 04:22:19;;;;;;;13.38;6.68;;;;;;;;;;5031151;28;20033;-82
2022/04/11 04:24:45;;;;;;;13.18;7.18;;;;;;;;;;5031964;28;20060;-83
2022/04/11 04:27:11;;;;;;;15.02;7.75;;;;;;;;;;5017790;28;20045;-83
2022/04/11 04:29:36;;;;;;;14.10;8.05;;;;;;;;;;5010916;28;20033;-83
2022/04/11 04:32:03;;;;;;;15.35;7.53;;;;;;;;;;4998926;28;20376;-83
2022/04/11 04:34:32;;;;;;;14.10;7.97;;;;;;;;;;5020931;28;20029;-83
2022/04/11 04:36:58;;;;;;;15.02;8.20;;;;;;;;;;5023366;28;20470;-83
2022/04/11 04:39:25;;;;;;;12.60;7.50;;;;;;;;;;5030907;28;20638;-83
2022/04/11 04:41:51;;;;;;;15.05;8.23;;;;;;;;;;5030479;28;20037;-83
2022/04/11 04:44:19;;;;;;;13.77;7.65;;;;;;;;;;5012125;28;20041;-83
2022/04/11 04:46:45;;;;;;;14.48;8.00;;;;;;;;;;5029780;28;20022;-82
2022/04/11 04:49:11;;;;;;;16.73;8.82;;;;;;;;;;5030502;28;20079;-83
2022/04/11 04:51:37;;;;;;;15.80;7.93;;;;;;;;;;5012353;28;20064;-83
2022/04/11 04:54:03;;;;;;;13.27;8.38;;;;;;;;;;5029503;28;20065;-84
2022/04/11 04:56:29;;;;;;;14.80;8.48;;;;;;;;;;5012089;28;20043;-83
2022/04/11 04:58:55;;;;;;;15.13;8.15;;;;;;;;;;5031024;28;20068;-82
2022/04/11 05:01:20;;;;;;;15.05;8.70;;;;;;;;;;5030777;28;20045;-82
2022/04/11 05:03:46;;;;;;;15.57;9.00;;;;;;;;;;5014876;28;20068;-82
2022/04/11 05:06:15;;;;;;;12.52;7.95;;;;;;;;;;5017407;28;20029;-83
2022/04/11 05:08:41;;;;;;;16.50;8.70;;;;;;;;;;5015425;28;20489;-82
2022/04/11 05:11:07;;;;;;;15.10;8.27;;;;;;;;;;5030899;28;20057;-82
2022/04/11 05:13:33;;;;;;;13.68;7.85;;;;;;;;;;5030959;28;20402;-82
2022/04/11 05:15:59;;;;;;;13.25;8.38;;;;;;;;;;5011723;28;20073;-83
2022/04/11 05:18:25;;;;;;;13.85;8.73;;;;;;;;;;5031771;28;20141;-81
2022/04/11 05:20:51;;;;;;;11.57;8.20;;;;;;;;;;5030889;28;20477;-79
2022/04/11 05:23:19;;;;;;;12.55;8.13;;;;;;;;;;5031373;28;20061;-83
2022/04/11 05:25:45;;;;;;;13.32;8.48;;;;;;;;;;5031259;28;20021;-82
2022/04/11 05:28:11;;;;;;;12.27;7.35;;;;;;;;;;5030381;28;20036;-84
2022/04/11 05:30:37;;;;;;;14.05;7.53;;;;;;;;;;5012811;28;20450;-83
2022/04/11 05:33:03;;;;;;;13.10;6.70;;;;;;;;;;5012169;28;20065;-83
2022/04/11 05:35:29;;;;;;;10.90;6.68;;;;;;;;;;5030035;28;20049;-83
2022/04/11 05:37:55;;;;;;;10.60;6.75;;;;;;;;;;5015627;28;20483;-84
2022/04/11 05:40:22;;;;;;;12.50;6.28;;;;;;;;;;5030511;28;20390;-82
2022/04/11 05:42:48;;;;;;;9.57;5.97;;;;;;;;;;5021290;28;20029;-83
2022/04/11 05:45:14;;;;;;;10.45;6.00;;;;;;;;;;5026314;28;20045;-83
2022/04/11 05:47:40;;;;;;;12.63;5.82;;;;;;;;;;5018766;28;20056;-82
2022/04/11 05:50:06;;;;;;;12.20;6.22;;;;;;;;;;5019460;28;20028;-83
2022/04/11 05:52:32;;;;;;;10.40;6.03;;;;;;;;;;5025408;28;20040;-83
2022/04/11 05:54:58;;;;;;;9.70;5.55;;;;;;;;;;5030121;28;20061;-82
2022/04/11 05:57:24;;;;;;;14.05;5.95;;;;;;;;;;5027440;28;20550;-82
2022/04/11 05:59:50;;;;;;;9.07;5.53;;;;;;;;;;5020879;28;20084;-83
2022/04/11 06:02:16;;;;;;;11.30;5.68;;;;;;;;;;5004931;28;20148;-82
2022/04/11 06:04:41;;;;;;;9.38;5.65;;;;;;;;;;5013625;28;20526;-82
2022/04/11 06:07:08;;;;;;;8.82;5.75;;;;;;;;;;5025923;28;20065;-82
2022/04/11 06:09:34;;;;;;;11.43;6.20;;;;;;;;;;4999519;28;20041;-82
2022/04/11 06:12:00;;;;;;;10.55;6.03;;;;;;;;;;5029982;28;20057;-82
2022/04/11 06:14:26;;;;;;;9.32;5.30;;;;;;;;;;5016136;28;20060;-81
2022/04/11 06:16:52;;;;;;;10.93;5.07;;;;;;;;;;5026327;28;20487;-81
2022/04/11 06:19:18;;;;;;;10.00;5.78;;;;;;;;;;4997446;28;20033;-81
2022/04/11 06:21:43;;;;;;;9.43;5.35;;;;;;;;;;5029931;28;20053;-81
2022/04/11 06:24:09;;;;;;;10.77;5.47;;;;;;;;;;5017720;28;20065;-82
2022/04/11 06:26:35;;;;;;;10.90;5.50;;;;;;;;;;5025341;28;20087;-81
2022/04/11 06:29:01;;;;;;;8.68;5.63;;;;;;;;;;5012890;28;20029;-81
2022/04/11 06:31:27;;;;;;;10.45;6.00;;;;;;;;;;5023421;28;20033;-82
2022/04/11 06:33:53;;;;;;;9.40;5.22;;;;;;;;;;5019373;28;20036;-82
2022/04/11 06:36:19;;;;;;;9.05;5.50;;;;;;;;;;5022872;28;20593;-81
2022/04/11 06:38:45;;;;;;;8.60;5.35;;;;;;;;;;5012597;28;20068;-81
2022/04/11 06:41:11;;;;;;;11.68;5.28;;;;;;;;;;5025484;28;20096;-82
2022/04/11 06:43:36;;;;;;;10.20;5.10;;;;;;;;;;5017604;28;20454;-82
2022/04/11 06:46:06;;;;;;;10.75;5.10;;;;;;;;;;5020703;28;20045;-81
2022/04/11 06:48:32;;;;;;;9.85;5.40;;;;;;;;;;5001836;28;20402;-81
2022/04/11 06:50:57;;;;;;;9.77;5.75;;;;;;;;;;5020400;28;20045;-82
2022/04/11 06:53:23;;;;;;;9.65;5.38;;;;;;;;;;5016168;28;20123;-81
2022/04/11 06:55:49;;;;;;;12.98;5.65;;;;;;;;;;5020202;28;20033;-81
2022/04/11 06:58:16;;;;;;;10.00;5.57;;;;;;;;;;5022865;28;20022;-79
2022/04/11 07:00:46;;;;;;;13.13;5.22;;;;;;;;;;4995447;28;20053;-81
2022/04/11 07:03:12;;;;;;;9.45;4.85;;;;;;;;;;5025609;28;20510;-81
2022/04/11 07:05:39;;;;;;;11.95;4.70;;;;;;;;;;5017941;28;20470;-81
2022/04/11 07:08:06;;;;;;;9.85;5.13;;;;;;;;;;5018735;28;20032;-80
2022/04/11 07:10:32;;;;;;;11.15;6.22;;;;;;;;;;5007379;28;20404;-81
2022/04/11 07:13:02;;;;;;;10.95;4.82;;;;;;;;;;5009219;28;20407;-80
2022/04/11 07:15:28;;;;;;;9.10;5.13;;;;;;;;;;5016675;28;20032;-80
2022/04/11 07:17:54;;;;;;;8.98;4.90;;;;;;;;;;5026074;28;20036;-81
2022/04/11 07:20:20;;;;;;;7.95;5.03;;;;;;;;;;5028447;28;20100;-82
2022/04/11 07:22:46;;;;;;;8.88;4.75;;;;;;;;;;5014665;28;20053;-82
2022/04/11 07:25:12;;;;;;;7.35;4.55;;;;;;;;;;5026665;28;20050;-82
2022/04/11 07:27:39;;;;;;;11.18;5.15;;;;;;;;;;5010887;28;20145;-81
2022/04/11 07:30:05;;;;;;;10.90;4.60;;;;;;;;;;5022291;28;20025;-81
2022/04/11 07:32:31;;;;;;;7.80;4.80;;;;;;;;;;5011344;28;20186;-80
2022/04/11 07:34:58;;;;;;;9.20;4.90;;;;;;;;;;5013144;28;20483;-81
2022/04/11 07:37:26;;;;;;;8.32;4.97;;;;;;;;;;5023397;28;20018;-81
2022/04/11 07:39:52;;;;;;;12.38;4.75;;;;;;;;;;5019579;28;20105;-81
2022/04/11 07:42:19;;;;;;;12.70;5.13;;;;;;;;;;4998402;28;20042;-81
2022/04/11 07:44:45;;;;;;;8.55;4.97;;;;;;;;;;5008015;28;20220;-81
2022/04/11 07:47:11;;;;;;;11.65;5.13;;;;;;;;;;5014137;28;20021;-81
2022/04/11 07:49:37;;;;;;;11.55;5.03;;;;;;;;;;5030592;28;20064;-81
2022/04/11 07:52:05;;;;;;;9.77;4.90;;;;;;;;;;5018611;28;20052;-81
2022/04/11 07:54:31;;;;;;;7.97;4.75;;;;;;;;;;5006804;28;20052;-81
2022/04/11 07:56:57;;;;;;;12.48;5.43;;;;;;;;;;5025758;28;20069;-81
2022/04/11 07:59:23;;;;;;;8.75;4.90;;;;;;;;;;5016343;28;20160;-81
2022/04/11 08:01:49;;;;;;;13.05;5.05;;;;;;;;;;5018509;28;20697;-81
2022/04/11 08:04:14;;;;;;;9.65;4.80;;;;;;;;;;5000569;28;20043;-81
2022/04/11 08:06:40;;;;;;;7.95;5.30;;;;;;;;;;5024706;28;20410;-81
2022/04/11 08:09:06;;;;;;;10.35;6.88;;;;;;;;;;5025428;28;20117;-81
2022/04/11 08:11:32;;;;;;;9.52;4.28;;;;;;;;;;5013899;28;20068;-82
2022/04/11 08:14:11;;;;;;;9.68;4.60;;;;;;;;;;5019228;28;20513;-81
2022/04/11 08:16:36;;;;;;;11.70;4.00;;;;;;;;;;5004180;28;20486;-81
2022/04/11 08:19:03;;;;;;;8.65;4.15;;;;;;;;;;5002937;28;20068;-80
2022/04/11 08:21:28;;;;;;;8.48;4.22;;;;;;;;;;5003272;28;20060;-82
2022/04/11 08:23:54;;;;;;;12.40;3.90;;;;;;;;;;5020085;28;20104;-81
2022/04/11 08:26:20;;;;;;;5.65;3.65;;;;;;;;;;5025485;28;20064;-80
2022/04/11 08:28:46;;;;;;;19.38;4.40;;;;;;;;;;5014041;28;20061;-81
2022/04/11 08:31:12;;;;;;;11.35;3.95;;;;;;;;;;5032376;28;20072;-80
2022/04/11 08:33:38;;;;;;;7.47;3.45;;;;;;;;;;5024834;28;20104;-81
2022/04/11 08:36:04;;;;;;;7.53;3.70;;;;;;;;;;5024027;28;20033;-81
2022/04/11 08:38:30;;;;;;;8.07;3.83;;;;;;;;;;4999629;28;20073;-81
2022/04/11 08:40:58;;;;;;;9.25;3.83;;;;;;;;;;5011024;28;20059;-80
2022/04/11 08:43:25;;;;;;;7.47;4.97;;;;;;;;;;5003330;28;20041;-81
2022/04/11 08:45:53;;;;;;;12.38;4.70;;;;;;;;;;5004474;28;20106;-80
2022/04/11 08:48:21;;;;;;;9.95;3.50;;;;;;;;;;5025648;28;20037;-80
2022/04/11 08:50:47;;;;;;;5.43;2.90;;;;;;;;;;5023931;28;20501;-80
2022/04/11 08:53:13;;;;;;;5.63;2.70;;;;;;;;;;5026631;28;20474;-80
2022/04/11 08:55:39;;;;;;;4.93;2.45;;;;;;;;;;5020395;28;20477;-80
2022/04/11 08:58:05;;;;;;;6.53;2.60;;;;;;;;;;5027616;28;20207;-80
2022/04/11 09:00:31;;;;;;;7.05;2.38;;;;;;;;;;5016853;28;20065;-80
2022/04/11 09:02:57;;;;;;;6.20;2.83;;;;;;;;;;5027959;28;20477;-80
2022/04/11 09:05:25;;;;;;;5.20;2.45;;;;;;;;;;5017811;28;20031;-81
2022/04/11 09:07:58;;;;;;;5.63;2.60;;;;;;;;;;5028646;28;20028;-81
2022/04/11 09:10:29;;;;;;;4.97;2.45;;;;;;;;;;4999472;28;20038;-81
2022/04/11 09:12:57;;;;;;;6.40;2.72;;;;;;;;;;5009840;28;20049;-81
2022/04/11 09:15:24;;;;;;;5.45;2.45;;;;;;;;;;5017382;28;20033;-81
2022/04/11 09:17:51;;;;;;;5.88;2.50;;;;;;;;;;5028938;28;20648;-82
2022/04/11 09:20:21;;;;;;;5.63;2.47;;;;;;;;;;5024931;28;20033;-79
2022/04/11 09:22:48;;;;;;;6.03;2.55;;;;;;;;;;4997393;28;20038;-81
2022/04/11 09:25:16;;;;;;;5.00;2.70;;;;;;;;;;5030717;28;20389;-80
2022/04/11 09:27:42;;;;;;;6.05;2.45;;;;;;;;;;5027649;28;20040;-80
2022/04/11 09:30:17;;;;;;;8.18;2.63;;;;;;;;;;4999144;28;20037;-81
2022/04/11 09:33:05;;;;;;;5.97;2.45;;;;;;;;;;5030455;28;20025;-81
2022/04/11 09:35:46;;;;;;;5.00;2.40;;;;;;;;;;5018553;28;20049;-81
2022/04/11 09:38:21;;;;;;;5.25;2.22;;;;;;;;;;5019856;28;20034;-80
2022/04/11 09:40:49;;;;;;;7.00;2.45;;;;;;;;;;5008936;28;20045;-81
2022/04/11 09:43:17;;;;;;;4.72;2.55;;;;;;;;;;5015736;28;20040;-81
2022/04/11 09:45:49;;;;;;;5.47;2.85;;;;;;;;;;5027824;28;20104;-81
2022/04/11 09:48:24;;;;;;;6.40;2.70;;;;;;;;;;5018067;28;20517;-80
2022/04/11 09:50:51;;;;;;;6.05;2.72;;;;;;;;;;5027658;28;20044;-81
2022/04/11 09:53:23;;;;;;;8.35;2.45;;;;;;;;;;5030220;28;20032;-82
2022/04/11 09:55:53;;;;;;;5.43;2.35;;;;;;;;;;5028365;28;20026;-81
2022/04/11 09:58:21;;;;;;;7.00;2.60;;;;;;;;;;5017798;28;20026;-80
2022/04/11 10:00:49;;;;;;;7.28;2.53;;;;;;;;;;5027378;28;20456;-81
2022/04/11 10:03:19;;;;;;;5.53;2.40;;;;;;;;;;5015359;28;20048;-80
2022/04/11 10:05:46;;;;;;;5.55;2.47;;;;;;;;;;5021896;28;20056;-80
2022/04/11 10:08:15;;;;;;;5.32;2.85;;;;;;;;;;4999413;28;20041;-81
2022/04/11 10:10:42;;;;;;;8.18;2.40;;;;;;;;;;5008925;28;20041;-81
2022/04/11 10:13:11;;;;;;;6.95;2.40;;;;;;;;;;5015419;28;20093;-80
2022/04/11 10:15:39;;;;;;;6.45;2.72;;;;;;;;;;5018830;28;20413;-80
2022/04/11 10:18:07;;;;;;;5.95;2.30;;;;;;;;;;5018681;28;20391;-81
2022/04/11 10:20:41;;;;;;;5.85;2.78;;;;;;;;;;5020793;28;20044;-81
2022/04/11 10:23:10;;;;;;;5.07;2.55;;;;;;;;;;4996395;28;20037;-81
2022/04/11 10:25:44;;;;;;;4.90;2.33;;;;;;;;;;5022699;28;20038;-81
2022/04/11 10:28:22;;;;;;;5.22;2.58;;;;;;;;;;5022865;28;20359;-81
2022/04/11 10:31:09;;;;;;;4.50;2.55;;;;;;;;;;5022062;28;20025;-81
2022/04/11 10:33:47;;;;;;;6.53;2.67;;;;;;;;;;5005710;28;20510;-81
2022/04/11 10:36:38;;;;;;;5.88;2.75;;;;;;;;;;5021997;28;20391;-80
2022/04/11 10:39:14;;;;;;;6.22;2.70;;;;;;;;;;5023546;28;20026;-80
2022/04/11 10:41:58;;;;;;;5.50;2.25;;;;;;;;;;5000856;28;20030;-81
2022/04/11 10:44:43;;;;;;;5.80;2.70;;;;;;;;;;5024690;28;20021;-83
2022/04/11 10:47:12;;;;;;;4.90;2.40;;;;;;;;;;5025836;28;20494;-81
2022/04/11 10:49:50;;;;;;;5.45;2.50;;;;;;;;;;5010229;28;20049;-82
2022/04/11 10:52:32;;;;;;;5.38;2.53;;;;;;;;;;5011471;28;20109;-81
2022/04/11 10:55:05;;;;;;;5.22;2.80;;;;;;;;;;5012686;28;20029;-81
2022/04/11 10:57:55;;;;;;;5.28;2.70;;;;;;;;;;5010270;28;20069;-81
2022/04/11 11:00:34;;;;;;;6.57;2.60;;;;;;;;;;5012671;28;20029;-81
2022/04/11 11:03:06;;;;;;;5.20;2.60;;;;;;;;;;5009401;28;20029;-82
2022/04/11 11:05:32;;;;;;;6.55;2.35;;;;;;;;;;4992436;28;20041;-82
2022/04/11 11:08:13;;;;;;;6.38;2.80;;;;;;;;;;5011194;28;20128;-81
2022/04/11 11:10:42;;;;;;;;;;;;;;;;;;5014692;28;20040;-81
2022/04/11 11:13:28;;;;;;;5.93;2.60;;;;;;;;;;5030305;28;20251;-82
2022/04/11 11:15:54;;;;;;;4.95;2.80;;;;;;;;;;5030008;28;20033;-80
2022/04/11 11:18:21;;;;;;;4.45;2.30;;;;;;;;;;5028531;28;20184;-80
2022/04/11 11:20:57;;;;;;;4.65;2.28;;;;;;;;;;5029999;28;20033;-82
2022/04/11 11:23:26;;;;;;;6.82;2.70;;;;;;;;;;5030083;28;20056;-83
2022/04/11 11:25:54;;;;;;;8.85;2.50;;;;;;;;;;5013267;28;20034;-78
2022/04/11 11:28:21;;;;;;;6.35;2.30;;;;;;;;;;5005085;28;20372;-77
2022/04/11 11:30:47;;;;;;;6.95;2.47;;;;;;;;;;5027616;28;20029;-78
2022/04/11 11:33:18;;;;;;;6.18;2.20;;;;;;;;;;5014119;28;20036;-77
2022/04/11 11:35:49;;;;;;;6.18;2.58;;;;;;;;;;5029328;28;20026;-77
2022/04/11 11:38:15;;;;;;;5.10;2.55;;;;;;;;;;5020095;28;20391;-77
2022/04/11 11:40:52;;;;;;;5.07;2.20;;;;;;;;;;5029030;28;20033;-78
2022/04/11 11:43:18;;;;;;;3.90;2.22;;;;;;;;;;4998750;28;20038;-80
2022/04/11 11:45:45;;;;;;;5.95;2.30;;;;;;;;;;5007417;28;20044;-79
2022/04/11 11:48:22;;;;;;;5.28;2.42;;;;;;;;;;5012796;28;20029;-78
2022/04/11 11:50:48;;;;;;;5.32;2.30;;;;;;;;;;5020245;28;20041;-78
2022/04/11 11:53:14;;;;;;;4.50;2.45;;;;;;;;;;5021169;28;20032;-79
2022/04/11 11:55:53;;;;;;;4.22;2.30;;;;;;;;;;5013624;28;20250;-78
2022/04/11 11:58:19;;;;;;;5.45;2.80;;;;;;;;;;5016556;28;20033;-78
2022/04/11 12:00:47;;;;;;;8.18;2.80;;;;;;;;;;4999077;28;20042;-79
2022/04/11 12:06:04;;;;;;;5.38;2.30;;;;;;;;;;5029880;28;20034;-78
2022/04/11 12:08:30;;;;;;;5.10;2.30;;;;;;;;;;5012778;28;20189;-78
2022/04/11 12:10:59;;;;;;;6.60;2.22;;;;;;;;;;5021718;28;20048;-78
2022/04/11 12:13:32;;;;;;;4.20;2.15;;;;;;;;;;5030547;28;20021;-78
2022/04/11 12:16:17;;;;;;;6.15;2.28;;;;;;;;;;5019786;28;20291;-78
2022/04/11 12:18:54;;;;;;;6.00;2.20;;;;;;;;;;5020223;28;20033;-78
2022/04/11 12:21:37;;;;;;;4.13;2.28;;;;;;;;;;5001843;28;20038;-78
2022/04/11 12:24:05;;;;;;;3.85;1.83;;;;;;;;;;5028944;28;20037;-78
2022/04/11 12:26:33;;;;;;;4.85;2.10;;;;;;;;;;5031479;28;20677;-78
2022/04/11 12:29:10;;;;;;;5.43;2.33;;;;;;;;;;5022326;28;20026;-77
2022/04/11 12:31:56;;;;;;;5.55;2.22;;;;;;;;;;5009600;28;20041;-78
2022/04/11 12:34:32;;;;;;;4.78;2.15;;;;;;;;;;4999212;28;20037;-78
2022/04/11 12:37:01;;;;;;;4.45;1.80;;;;;;;;;;5022932;28;20026;-78
2022/04/11 12:39:27;;;;;;;6.43;2.20;;;;;;;;;;5015188;28;20026;-78
2022/04/11 12:41:55;;;;;;;5.20;2.28;;;;;;;;;;5028695;28;20389;-78
2022/04/11 12:44:31;;;;;;;6.63;2.33;;;;;;;;;;5016868;28;20032;-77
2022/04/11 12:47:00;;;;;;;7.00;2.40;;;;;;;;;;5023102;28;20023;-77
2022/04/11 12:49:43;;;;;;;5.47;2.47;;;;;;;;;;5013529;28;20041;-77
2022/04/11 12:52:09;;;;;;;5.15;2.30;;;;;;;;;;5028624;28;20030;-78
2022/04/11 12:54:40;;;;;;;5.07;2.00;;;;;;;;;;5002665;28;20208;-78
2022/04/11 12:57:12;;;;;;;4.40;2.22;;;;;;;;;;5021074;28;20030;-77
2022/04/11 12:59:40;;;;;;;4.78;2.30;;;;;;;;;;4994289;28;20133;-76
2022/04/11 13:02:11;;;;;;;4.70;2.30;;;;;;;;;;5028377;28;20040;-78
2022/04/11 13:04:41;;;;;;;;;;;;;;;;;;5019068;28;20044;-76
2022/04/11 13:07:08;;;;;;;4.63;2.08;;;;;;;;;;5020775;28;19913;-76
2022/04/11 13:09:37;;;;;;;5.38;2.42;;;;;;;;;;5026460;28;20470;-76
2022/04/11 13:12:08;;;;;;;4.50;2.22;;;;;;;;;;5015386;28;20036;-77
2022/04/11 13:14:36;;;;;;;4.75;2.40;;;;;;;;;;5024822;28;20030;-79
2022/04/11 13:19:48;;;;;;;4.45;2.00;;;;;;;;;;5015651;28;20387;-77
2022/04/11 13:22:14;;;;;;;5.25;1.90;;;;;;;;;;5027825;28;20358;-77
2022/04/11 13:24:40;;;;;;;5.72;2.10;;;;;;;;;;5018815;28;20065;-77
2022/04/11 13:27:06;;;;;;;4.95;2.50;;;;;;;;;;5002338;28;20493;-77
2022/04/11 13:29:32;;;;;;;5.90;2.70;;;;;;;;;;5025600;28;20109;-76
2022/04/11 13:31:59;;;;;;;4.00;2.20;;;;;;;;;;5014545;28;20475;-77
2022/04/11 13:34:25;;;;;;;6.80;2.78;;;;;;;;;;5025940;28;20022;-77
2022/04/11 13:36:52;;;;;;;6.70;2.80;;;;;;;;;;5019594;28;20061;-76
2022/04/11 13:39:18;;;;;;;5.55;2.50;;;;;;;;;;5018557;28;20041;-77
2022/04/11 13:41:47;;;;;;;6.15;2.40;;;;;;;;;;5027093;28;20032;-77
2022/04/11 13:44:18;;;;;;;5.97;2.33;;;;;;;;;;5019045;28;20599;-77
2022/04/11 13:46:45;;;;;;;4.18;2.10;;;;;;;;;;5021336;28;20025;-78
2022/04/11 13:49:14;;;;;;;5.45;2.35;;;;;;;;;;5012625;28;20044;-77
2022/04/11 13:51:41;;;;;;;7.80;2.75;;;;;;;;;;5020545;28;20033;-78
2022/04/11 13:54:08;;;;;;;6.53;2.42;;;;;;;;;;5003452;28;20029;-77
2022/04/11 13:56:40;;;;;;;6.28;2.40;;;;;;;;;;5019303;28;20034;-76
2022/04/11 13:59:11;;;;;;;3.90;2.03;;;;;;;;;;5001160;28;20503;-78
2022/04/11 14:01:38;;;;;;;5.03;2.00;;;;;;;;;;5015794;28;20025;-77
2022/04/11 14:04:05;;;;;;;6.75;2.17;;;;;;;;;;5003307;28;20038;-77
2022/04/11 14:06:31;;;;;;;4.63;2.10;;;;;;;;;;5029877;28;20033;-77
2022/04/11 14:08:56;;;;;;;5.85;2.15;;;;;;;;;;5021089;28;20382;-77
2022/04/11 14:11:22;;;;;;;3.75;2.10;;;;;;;;;;5003378;28;20045;-77
2022/04/11 14:13:48;;;;;;;6.05;2.10;;;;;;;;;;5012803;28;20092;-76
2022/04/11 14:16:14;;;;;;;5.93;2.03;;;;;;;;;;5026455;28;20049;-73
2022/04/11 14:18:40;;;;;;;5.82;2.50;;;;;;;;;;5016501;28;20486;-76
2022/04/11 14:21:06;;;;;;;6.20;2.28;;;;;;;;;;5017795;28;20058;-75
2022/04/11 14:23:32;;;;;;;10.77;2.83;;;;;;;;;;5016807;28;20076;-75
2022/04/11 14:25:58;;;;;;;3.55;1.70;;;;;;;;;;5013979;28;20017;-75
2022/04/11 14:28:24;;;;;;;3.25;1.70;;;;;;;;;;5024586;28;20021;-75
2022/04/11 14:30:50;;;;;;;4.20;1.70;;;;;;;;;;5019800;28;20397;-76
2022/04/11 14:33:17;;;;;;;3.33;1.90;;;;;;;;;;5018880;28;20617;-75
2022/04/11 14:35:43;;;;;;;6.90;2.25;;;;;;;;;;5022470;28;20497;-75
2022/04/11 14:38:10;;;;;;;6.63;2.10;;;;;;;;;;5003303;28;20063;-75
2022/04/11 14:40:36;;;;;;;8.65;1.83;;;;;;;;;;5005215;28;20046;-75
2022/04/11 14:43:03;;;;;;;8.23;1.90;;;;;;;;;;5004300;28;20033;-76
2022/04/11 14:45:29;;;;;;;4.45;1.70;;;;;;;;;;4998258;28;20044;-77
2022/04/11 14:47:55;;;;;;;3.42;1.80;;;;;;;;;;4991939;28;20038;-77
2022/04/11 14:50:21;;;;;;;3.50;1.55;;;;;;;;;;5011329;28;20050;-76